Ben Franklin, Texas
Current Conditions -  °F | °C
As of 10:55 AM on Thursday 30 Oct 2014 (Local Time) from KPRX Reporting Station
Clear Clear  
Wind Chill: 64°   Ceiling: Unl
Heat Index: 64°   Visibility: 10mi
Dew Point: 45°   Wind: 8mph
Humidity: 49%   Direction: 180°S
Pressure: 30.19"   Gusts: NA
Location:  33.48°N, 95.77°W
Report Text: KPRX 301555Z 18007KT 10SM CLR 18/07 A3019 RMK AO1
Loading
Personal Weather Stations






























Interactive Weather Map
Tropical Storm Tracking
New forecast layout! Learn more

10-Day Weather Forecast

Advertisements
Track Severe Weather on mobile